Terminal Aerodrome Forecast
Issued by NWS Pueblo, CO

Home | Current Version | Previous Version | Text Only | Print | Product List | Glossary On
Versions: 1 2 3 4 5 6 7 8 9 10 11 12 13 14 15 16 17 18 19 20 21 22 23 24 25 26
000
FTUS45 KPUB 231120
TAFPUB
TAF
KPUB 231120Z 2312/2412 34008KT P6SM FEW090 SCT150
     FM231700 36013G23KT P6SM SCT080
     FM232300 02008KT P6SM FEW100 SCT200
     FM240300 VRB06KT P6SM FEW200=

USA.gov is the U.S. government's official web portal to all federal, state and local government web resources and services.